createdAt,value
2023-04-25T00:04:47.206Z,7.9
2023-04-25T00:09:47.108Z,7.9
2023-04-25T00:14:47.098Z,7.8
2023-04-25T00:19:47.101Z,8.7
2023-04-25T00:24:47.121Z,8.9
2023-04-25T00:29:47.092Z,8.9
2023-04-25T00:34:47.082Z,8.9
2023-04-25T00:39:47.152Z,8.3
2023-04-25T00:44:47.330Z,8.3
2023-04-25T00:49:47.131Z,8.5
2023-04-25T00:54:47.105Z,8.5
2023-04-25T00:59:47.123Z,8.5
2023-04-25T01:04:47.143Z,8.5
2023-04-25T01:09:47.147Z,8.7
2023-04-25T01:14:47.107Z,8.7
2023-04-25T01:19:47.097Z,9.1
2023-04-25T01:24:47.109Z,9.7
2023-04-25T01:29:47.117Z,10.1
2023-04-25T01:34:47.108Z,9.7
2023-04-25T01:39:47.116Z,9.7
2023-04-25T01:44:47.109Z,9.2
2023-04-25T01:49:47.087Z,9.2
2023-04-25T01:54:47.091Z,9.2
2023-04-25T01:59:47.092Z,8.8
2023-04-25T02:04:47.192Z,8.8
2023-04-25T02:09:47.125Z,8.8
2023-04-25T02:14:47.095Z,9.4
2023-04-25T02:19:47.097Z,9.5
2023-04-25T02:24:47.133Z,9.5
2023-04-25T02:29:47.108Z,9.4
2023-04-25T02:34:47.146Z,9.5
2023-04-25T02:39:47.147Z,9.4
2023-04-25T02:44:47.139Z,9.5
2023-04-25T02:49:47.154Z,9.5
2023-04-25T02:54:47.112Z,9.4
2023-04-25T02:59:47.086Z,9.4
2023-04-25T03:04:47.155Z,9.5
2023-04-25T03:09:47.135Z,9.8
2023-04-25T03:14:47.129Z,9.8
2023-04-25T03:19:47.107Z,9.8
2023-04-25T03:24:47.163Z,9.5
2023-04-25T03:29:47.153Z,9.5
2023-04-25T03:34:47.122Z,9.8
2023-04-25T03:39:47.150Z,9.8
2023-04-25T03:44:47.129Z,9.5
2023-04-25T03:49:47.119Z,9.9
2023-04-25T03:54:47.158Z,9.9
2023-04-25T03:59:47.125Z,10
2023-04-25T04:04:47.454Z,10
2023-04-25T04:09:47.168Z,9.9
2023-04-25T04:14:47.130Z,9.5
2023-04-25T04:19:47.100Z,9.9
2023-04-25T04:24:47.126Z,8.9
2023-04-25T04:29:47.187Z,8.6
2023-04-25T04:34:47.125Z,8.3
2023-04-25T04:39:47.153Z,8.6
2023-04-25T04:44:47.139Z,8.7
2023-04-25T04:49:47.149Z,8.7
2023-04-25T04:54:47.149Z,8.7
2023-04-25T04:59:47.119Z,8.6
2023-04-25T05:04:47.148Z,8.7
2023-04-25T05:09:47.110Z,9.9
2023-04-25T05:14:47.149Z,9.5
2023-04-25T05:19:47.172Z,9.6
2023-04-25T05:24:47.130Z,9.6
2023-04-25T05:29:47.140Z,9.6
2023-04-25T05:34:47.139Z,9.7
2023-04-25T05:39:47.238Z,9.6
2023-04-25T05:44:47.158Z,9.5
2023-04-25T05:49:47.124Z,9
2023-04-25T05:54:47.143Z,9
2023-04-25T05:59:47.099Z,9.7
2023-04-25T06:04:47.298Z,9
2023-04-25T06:09:47.128Z,9
2023-04-25T06:14:47.159Z,9.6
2023-04-25T06:19:47.186Z,9.6
2023-04-25T06:24:47.130Z,9.6
2023-04-25T06:29:47.126Z,9.6
2023-04-25T06:34:47.142Z,9.6
2023-04-25T06:39:47.165Z,9.6
2023-04-25T06:44:47.143Z,9.6
2023-04-25T06:49:47.150Z,9.7
2023-04-25T06:54:47.142Z,10.6
2023-04-25T06:59:47.121Z,11
2023-04-25T07:04:47.372Z,11.4
2023-04-25T07:09:47.267Z,11.6
2023-04-25T07:14:47.164Z,13.5
2023-04-25T07:19:47.139Z,13.6
2023-04-25T07:24:47.162Z,14.2
2023-04-25T07:29:47.151Z,14.2
2023-04-25T07:34:47.134Z,14.2
2023-04-25T07:39:47.157Z,14.5
2023-04-25T07:44:47.165Z,14.9
2023-04-25T07:49:47.151Z,14.9
2023-04-25T07:54:47.142Z,15
2023-04-25T07:59:47.246Z,15.2
2023-04-25T08:04:47.327Z,15.2
2023-04-25T08:09:47.211Z,16.1
2023-04-25T08:14:47.188Z,15.2
2023-04-25T08:19:47.187Z,15.2
2023-04-25T08:24:47.210Z,13.2
2023-04-25T08:29:47.297Z,12.3
2023-04-25T08:34:47.449Z,12.3
2023-04-25T08:39:47.176Z,12.3
2023-04-25T08:44:47.175Z,11.6
2023-04-25T08:49:47.151Z,11.6
2023-04-25T08:54:47.367Z,11.9
2023-04-25T08:59:47.165Z,11.7
2023-04-25T09:04:47.164Z,11.7
2023-04-25T09:09:47.211Z,11.7
2023-04-25T09:14:47.157Z,11.7
2023-04-25T09:19:47.182Z,11.7
2023-04-25T09:24:47.249Z,11.7
2023-04-25T09:29:47.180Z,11.7
2023-04-25T09:34:47.143Z,11.7
2023-04-25T09:39:47.241Z,12.4
2023-04-25T09:44:47.212Z,13.3
2023-04-25T09:49:47.249Z,13.3
2023-04-25T09:54:47.171Z,13.3
2023-04-25T09:59:47.300Z,13.3
2023-04-25T10:04:47.304Z,13.3
2023-04-25T10:09:47.178Z,11.5
2023-04-25T10:14:47.190Z,11
2023-04-25T10:19:47.195Z,11
2023-04-25T10:24:47.187Z,9.5
2023-04-25T10:29:47.186Z,9.5
2023-04-25T10:34:47.159Z,10.4
2023-04-25T10:39:47.162Z,10.4
2023-04-25T10:44:47.228Z,11.2
2023-04-25T10:49:47.210Z,11.2
2023-04-25T10:54:47.200Z,10.4
2023-04-25T10:59:47.438Z,10.4
2023-04-25T11:04:47.263Z,10.4
2023-04-25T11:09:47.158Z,10.6
2023-04-25T11:14:47.203Z,10.6
2023-04-25T11:19:47.248Z,10.3
2023-04-25T11:24:47.251Z,10.3
2023-04-25T11:29:47.193Z,10.1
2023-04-25T11:34:47.186Z,8.5
2023-04-25T11:39:47.234Z,7.9
2023-04-25T11:44:47.163Z,7.8
2023-04-25T11:49:47.202Z,7.6
2023-04-25T11:54:47.400Z,7.5
2023-04-25T11:59:47.268Z,6.5
2023-04-25T12:04:47.425Z,6.4
2023-04-25T12:09:47.251Z,5.8
2023-04-25T12:14:47.202Z,4.9
2023-04-25T12:19:47.230Z,4.9
2023-04-25T12:24:47.246Z,4.6
2023-04-25T12:29:50.245Z,4.6
2023-04-25T12:34:47.245Z,4.3
2023-04-25T12:39:47.214Z,3.9
2023-04-25T12:44:47.214Z,3.9
2023-04-25T12:49:47.236Z,4.7
2023-04-25T12:54:47.321Z,4.7
2023-04-25T12:59:47.284Z,4.7
2023-04-25T13:04:47.238Z,4.7
2023-04-25T13:09:47.216Z,5.7
2023-04-25T13:14:47.222Z,5.8
2023-04-25T13:19:47.204Z,5.8
2023-04-25T13:24:47.255Z,5.7
2023-04-25T13:29:47.304Z,5.5
2023-04-25T13:34:47.194Z,5.5
2023-04-25T13:39:47.239Z,5.5
2023-04-25T13:44:48.648Z,5.5
2023-04-25T13:49:47.209Z,5.3
2023-04-25T13:54:47.198Z,5.5
2023-04-25T13:59:47.208Z,6.2
2023-04-25T14:09:47.245Z,7.2
2023-04-25T14:19:47.218Z,6.7
2023-04-25T14:24:47.243Z,6.45
2023-04-25T14:29:47.248Z,6.7
2023-04-25T14:34:47.219Z,7.5
2023-04-25T14:39:47.253Z,6.8
2023-04-25T14:44:47.232Z,6.9
2023-04-25T14:49:47.229Z,7
2023-04-25T14:54:47.278Z,8.3
2023-04-25T14:59:47.266Z,8.3
2023-04-25T15:09:47.238Z,7.6
2023-04-25T15:14:47.227Z,7.9
2023-04-25T15:29:47.283Z,7.1
2023-04-25T15:34:47.239Z,7.3
2023-04-25T15:39:47.237Z,7.5
2023-04-25T15:44:47.280Z,7.5
2023-04-25T15:49:47.234Z,7.5
2023-04-25T15:54:47.224Z,7.5
2023-04-25T15:59:47.292Z,7.5
2023-04-25T16:04:47.343Z,7.5
2023-04-25T16:09:47.362Z,7.5
2023-04-25T16:14:47.292Z,7.2
2023-04-25T16:19:47.221Z,7
2023-04-25T16:24:47.236Z,7
2023-04-25T16:29:47.260Z,7
2023-04-25T16:34:47.239Z,7
2023-04-25T16:39:47.277Z,7.3
2023-04-25T16:44:47.419Z,8.5
2023-04-25T16:49:47.277Z,9
2023-04-25T16:54:47.299Z,9
2023-04-25T16:59:47.266Z,9.2
2023-04-25T17:04:47.301Z,9
2023-04-25T17:09:47.257Z,9.2
2023-04-25T17:14:47.301Z,9.2
2023-04-25T17:19:47.360Z,9.2
2023-04-25T17:24:47.275Z,8.8
2023-04-25T17:29:47.249Z,9.8
2023-04-25T17:34:47.273Z,9.6
2023-04-25T17:39:47.306Z,9.8
2023-04-25T17:44:47.308Z,9.6
2023-04-25T17:49:47.257Z,9.6
2023-04-25T17:54:50.266Z,8.8
2023-04-25T17:59:47.281Z,8.8
2023-04-25T18:04:47.262Z,8.6
2023-04-25T18:09:47.212Z,8.6
2023-04-25T18:14:47.295Z,8.3
2023-04-25T18:19:47.279Z,8.6
2023-04-25T18:24:47.230Z,8.8
2023-04-25T18:29:47.250Z,8.8
2023-04-25T18:34:47.267Z,8.8
2023-04-25T18:39:47.323Z,8.8
2023-04-25T18:44:47.317Z,8.8
2023-04-25T18:49:47.295Z,8.8
2023-04-25T18:54:47.239Z,8.8
2023-04-25T18:59:47.242Z,7.9
2023-04-25T19:04:47.308Z,7.8
2023-04-25T19:09:47.254Z,7.9
2023-04-25T19:14:47.245Z,7.9
2023-04-25T19:19:47.292Z,8
2023-04-25T19:24:55.657Z,9
2023-04-25T19:29:47.244Z,8
2023-04-25T19:34:47.292Z,9.1
2023-04-25T19:39:47.286Z,9.9
2023-04-25T19:44:47.289Z,9.9
2023-04-25T19:49:47.299Z,9.9
2023-04-25T19:54:47.292Z,9.9
2023-04-25T19:59:47.276Z,9.9
2023-04-25T20:04:47.265Z,11.4
2023-04-25T20:09:47.287Z,11.5
2023-04-25T20:14:47.270Z,11.5
2023-04-25T20:19:47.267Z,11.5
2023-04-25T20:24:47.284Z,8.2
2023-04-25T20:29:47.322Z,9.8
2023-04-25T20:34:47.262Z,8
2023-04-25T20:39:47.340Z,7.9
2023-04-25T20:44:47.253Z,7.9
2023-04-25T20:49:47.290Z,8
2023-04-25T20:54:47.302Z,8.3
2023-04-25T20:59:48.824Z,8.5
2023-04-25T21:04:47.319Z,8.3
2023-04-25T21:09:47.307Z,8.5
2023-04-25T21:14:47.334Z,10.1
2023-04-25T21:19:47.301Z,9.3
2023-04-25T21:24:47.341Z,10.1
2023-04-25T21:29:47.293Z,10.2
2023-04-25T21:34:47.334Z,10.6
2023-04-25T21:39:47.275Z,10.6
2023-04-25T21:44:47.301Z,10.6
2023-04-25T21:49:47.313Z,10.6
2023-04-25T21:54:47.307Z,10.6
2023-04-25T21:59:47.335Z,11.4
2023-04-25T22:04:47.527Z,10.6
2023-04-25T22:09:54.832Z,9.7
2023-04-25T22:14:47.336Z,9.7
2023-04-25T22:19:47.346Z,9.7
2023-04-25T22:24:47.328Z,11
2023-04-25T22:29:47.354Z,9.7
2023-04-25T22:34:47.302Z,9.7
2023-04-25T22:39:47.287Z,10.9
2023-04-25T22:44:47.323Z,11
2023-04-25T22:49:47.383Z,10.9
2023-04-25T22:54:47.298Z,10.9
2023-04-25T22:59:47.313Z,10.7
2023-04-25T23:04:47.299Z,10.7
2023-04-25T23:09:47.325Z,10
2023-04-25T23:14:47.326Z,9.8
2023-04-25T23:19:47.337Z,9.5
2023-04-25T23:24:47.357Z,9.8
2023-04-25T23:29:47.302Z,9.8
2023-04-25T23:34:47.340Z,10
2023-04-25T23:39:47.319Z,10.4
2023-04-25T23:44:47.325Z,10.4
2023-04-25T23:49:47.318Z,11.5
2023-04-25T23:54:47.321Z,12.3
2023-04-25T23:59:47.306Z,13.7
